This is the latest recevied weather packets stored in our database for station/object CE3TL-WX. If no packets are shown the sender has not sent any weather packets the latest 10 day(s).
| Time | Temp. | Humidity | Pressure | Rain* | Wind** | Luminosity | Snow |
|---|---|---|---|---|---|---|---|
| 1777749883 | 20.56° C | 50% | 1022.9 hPa | - | - | - | - |
| 1777749349 | 20.56° C | 44% | 1022.7 hPa | - | - | - | - |
| 1777748816 | 20.56° C | 48% | 1022.9 hPa | - | - | - | - |
| 1777748281 | 20.56° C | 47% | 1022.8 hPa | - | - | - | - |
| 1777747746 | 20.56° C | 50% | 1022.9 hPa | - | - | - | - |
| 1777747212 | 20.56° C | 47% | 1022.8 hPa | - | - | - | - |
| 1777746679 | 20.56° C | 44% | 1022.8 hPa | - | - | - | - |
| 1777746144 | 20.56° C | 39% | 1022.5 hPa | - | - | - | - |
| 1777745610 | 20.56° C | 49% | 1022.9 hPa | - | - | - | - |
| 1777745076 | 20° C | 52% | 1022.9 hPa | - | - | - | - |
| 1777744541 | 20° C | 50% | 1023 hPa | - | - | - | - |
| 1777744006 | 20° C | 48% | 1022.9 hPa | - | - | - | - |
| 1777743472 | 20° C | 49% | 1023 hPa | - | - | - | - |
| 1777742939 | 20° C | 50% | 1023 hPa | - | - | - | - |
| 1777742404 | 19.44° C | 48% | 1023 hPa | - | - | - | - |
| 1777741870 | 18.89° C | 54% | 1023.1 hPa | - | - | - | - |
| 1777741337 | 18.89° C | 51% | 1023.1 hPa | - | - | - | - |
| 1777740802 | 18.89° C | 53% | 1023.3 hPa | - | - | - | - |
| 1777740268 | 18.33° C | 55% | 1023.6 hPa | - | - | - | - |
| 1777739733 | 17.78° C | 55% | 1023.7 hPa | - | - | - | - |
| 1777739199 | 17.78° C | 56% | 1023.7 hPa | - | - | - | - |
| 1777738666 | 17.22° C | 56% | 1023.7 hPa | - | - | - | - |
| 1777738132 | 16.67° C | 59% | 1024 hPa | - | - | - | - |
| 1777737598 | 16.11° C | 60% | 1024 hPa | - | - | - | - |
| 1777737048 | 16.11° C | 60% | 1024.1 hPa | - | - | - | - |
* Rain since midnight (hover to see other rain measurements)
** Current wind speed in m/s (hover to see current wind gust speed)